createdAt,value
2018-02-19T00:00:53.694Z,100659
2018-02-19T00:05:58.097Z,100653
2018-02-19T00:11:08.206Z,100658
2018-02-19T00:16:14.293Z,100658
2018-02-19T00:21:19.994Z,100641
2018-02-19T00:26:24.862Z,100639
2018-02-19T00:31:34.706Z,100639
2018-02-19T00:36:39.874Z,100642
2018-02-19T00:41:45.265Z,100642
2018-02-19T00:46:50.197Z,100639
2018-02-19T00:51:58.553Z,100648
2018-02-19T00:57:02.945Z,100643
2018-02-19T01:02:12.688Z,100639
2018-02-19T01:07:18.389Z,100637
2018-02-19T01:12:27.645Z,100655
2018-02-19T01:17:32.033Z,100643
2018-02-19T01:22:37.648Z,100641
2018-02-19T01:27:42.914Z,100644
2018-02-19T01:32:51.397Z,100642
2018-02-19T01:37:56.538Z,100637
2018-02-19T01:43:00.866Z,100637
2018-02-19T01:48:05.576Z,100650
2018-02-19T01:53:09.653Z,100656
2018-02-19T01:58:20.178Z,100658
2018-02-19T02:03:24.053Z,100645
2018-02-19T02:08:29.029Z,100657
2018-02-19T02:13:33.342Z,100648
2018-02-19T02:18:41.569Z,100655
2018-02-19T02:23:45.965Z,100650
2018-02-19T02:28:51.350Z,100652
2018-02-19T02:33:55.798Z,100648
2018-02-19T02:39:03.394Z,100656
2018-02-19T02:44:07.833Z,100659
2018-02-19T02:49:14.538Z,100663
2018-02-19T02:54:19.958Z,100661
2018-02-19T02:59:30.074Z,100667
2018-02-19T03:04:35.390Z,100664
2018-02-19T03:09:39.877Z,100666
2018-02-19T03:14:44.574Z,100661
2018-02-19T03:19:53.153Z,100660
2018-02-19T03:24:57.936Z,100661
2018-02-19T03:30:02.457Z,100658
2018-02-19T03:35:07.325Z,100651
2018-02-19T03:40:12.456Z,100653
2018-02-19T03:45:17.393Z,100654
2018-02-19T03:50:22.814Z,100646
2018-02-19T03:55:27.958Z,100655
2018-02-19T04:00:34.367Z,100667
2018-02-19T04:05:38.785Z,100672
2018-02-19T04:10:43.458Z,100670
2018-02-19T04:15:47.567Z,100665
2018-02-19T04:20:55.732Z,100670
2018-02-19T04:26:00.432Z,100676
2018-02-19T04:31:09.172Z,100678
2018-02-19T04:36:14.397Z,100685
2018-02-19T04:41:22.770Z,100688
2018-02-19T04:46:43.137Z,100692
2018-02-19T04:51:52.326Z,100698
2018-02-19T04:56:57.513Z,100698
2018-02-19T05:02:07.195Z,100699
2018-02-19T05:07:11.634Z,100703
2018-02-19T05:12:16.555Z,100703
2018-02-19T05:17:21.557Z,100715
2018-02-19T05:22:26.218Z,100724
2018-02-19T05:27:30.449Z,100730
2018-02-19T05:32:35.586Z,100737
2018-02-19T05:37:45.614Z,100739
2018-02-19T05:42:51.139Z,100740
2018-02-19T05:48:08.829Z,100747
2018-02-19T05:53:14.481Z,100760
2018-02-19T05:58:20.334Z,100762
2018-02-19T06:03:25.038Z,100773
2018-02-19T06:08:33.977Z,100780
2018-02-19T06:13:39.889Z,100790
2018-02-19T06:18:47.212Z,100793
2018-02-19T06:23:52.635Z,100805
2018-02-19T06:28:58.178Z,100807
2018-02-19T06:34:03.662Z,100810
2018-02-19T06:39:12.325Z,100810
2018-02-19T06:44:16.854Z,100819
2018-02-19T06:49:21.891Z,100819
2018-02-19T06:54:26.567Z,100822
2018-02-19T06:59:33.076Z,100818
2018-02-19T07:04:37.587Z,100826
2018-02-19T07:09:45.593Z,100826
2018-02-19T07:14:49.723Z,100825
2018-02-19T07:19:57.677Z,100832
2018-02-19T07:25:03.943Z,100830
2018-02-19T07:30:11.556Z,100815
2018-02-19T07:35:16.211Z,100817
2018-02-19T07:40:24.758Z,100813
2018-02-19T07:45:30.253Z,100824
2018-02-19T07:50:36.575Z,100821
2018-02-19T07:55:42.718Z,100822
2018-02-19T08:00:49.257Z,100818
2018-02-19T08:05:53.897Z,100823
2018-02-19T08:11:05.064Z,100824
2018-02-19T08:16:09.465Z,100824
2018-02-19T08:21:20.418Z,100829
2018-02-19T08:26:25.677Z,100835
2018-02-19T08:31:36.153Z,100827
2018-02-19T08:36:40.933Z,100823
2018-02-19T08:41:53.626Z,100827
2018-02-19T08:46:58.734Z,100822
2018-02-19T08:52:03.565Z,100829
2018-02-19T08:57:11.182Z,100823
2018-02-19T09:02:16.786Z,100825
2018-02-19T09:07:22.101Z,100819
2018-02-19T09:12:27.218Z,100829
2018-02-19T09:17:44.328Z,100836
2018-02-19T09:22:49.249Z,100832
2018-02-19T09:27:56.997Z,100833
2018-02-19T09:33:01.694Z,100820
2018-02-19T09:38:07.968Z,100830
2018-02-19T09:43:12.500Z,100824
2018-02-19T09:48:21.682Z,100834
2018-02-19T09:53:27.074Z,100833
2018-02-19T09:58:36.664Z,100843
2018-02-19T10:03:42.273Z,100847
2018-02-19T10:08:53.400Z,100825
2018-02-19T10:13:57.933Z,100831
2018-02-19T10:19:10.031Z,100841
2018-02-19T10:24:15.008Z,100832
2018-02-19T10:29:23.070Z,100833
2018-02-19T10:34:28.116Z,100822
2018-02-19T10:39:33.978Z,100827
2018-02-19T10:44:38.549Z,100832
2018-02-19T10:49:44.089Z,100829
2018-02-19T10:54:49.150Z,100827
2018-02-19T11:00:00.530Z,100826
2018-02-19T11:05:05.080Z,100821
2018-02-19T11:10:14.783Z,100823
2018-02-19T11:15:19.541Z,100821
2018-02-19T11:20:29.559Z,100826
2018-02-19T11:25:34.448Z,100815
2018-02-19T11:30:40.366Z,100807
2018-02-19T11:35:45.321Z,100812
2018-02-19T11:40:49.953Z,100819
2018-02-19T11:45:54.506Z,100812
2018-02-19T11:51:06.167Z,100810
2018-02-19T11:56:10.555Z,100806
2018-02-19T12:01:19.886Z,100805
2018-02-19T12:06:24.932Z,100805
2018-02-19T12:11:29.015Z,100806
2018-02-19T12:16:36.999Z,100811
2018-02-19T12:21:43.066Z,100810
2018-02-19T12:26:54.482Z,100814
2018-02-19T12:31:59.850Z,100809
2018-02-19T12:37:06.422Z,100823
2018-02-19T12:42:11.309Z,100824
2018-02-19T12:47:26.363Z,100815
2018-02-19T12:52:30.825Z,100825
2018-02-19T12:57:37.782Z,100818
2018-02-19T13:02:42.329Z,100815
2018-02-19T13:07:50.888Z,100814
2018-02-19T13:12:54.941Z,100810
2018-02-19T13:17:59.932Z,100808
2018-02-19T13:23:05.013Z,100809
2018-02-19T13:28:16.565Z,100814
2018-02-19T13:33:21.244Z,100804
2018-02-19T13:38:25.586Z,100813
2018-02-19T13:43:48.162Z,100807
2018-02-19T13:49:00.218Z,100814
2018-02-19T13:54:05.593Z,100804
2018-02-19T13:59:13.838Z,100815
2018-02-19T14:04:18.502Z,100814
2018-02-19T14:09:28.269Z,100807
2018-02-19T14:14:32.873Z,100809
2018-02-19T14:19:37.197Z,100807
2018-02-19T14:24:41.997Z,100811
2018-02-19T14:29:47.373Z,100813
2018-02-19T14:34:51.481Z,100812
2018-02-19T14:39:59.754Z,100814
2018-02-19T14:45:05.130Z,100807
2018-02-19T14:50:11.773Z,100814
2018-02-19T14:55:16.998Z,100798
2018-02-19T15:00:28.510Z,100818
2018-02-19T15:05:33.424Z,100822
2018-02-19T15:10:49.850Z,100819
2018-02-19T15:15:55.091Z,100833
2018-02-19T15:20:59.885Z,100827
2018-02-19T15:26:18.510Z,100831
2018-02-19T15:31:22.741Z,100831
2018-02-19T15:36:29.966Z,100835
2018-02-19T15:41:34.913Z,100827
2018-02-19T15:46:40.774Z,100828
2018-02-19T15:51:45.926Z,100839
2018-02-19T15:56:54.640Z,100840
2018-02-19T16:01:59.565Z,100851
2018-02-19T16:07:05.838Z,100855
2018-02-19T16:12:11.005Z,100851
2018-02-19T16:17:15.899Z,100851
2018-02-19T16:22:21.466Z,100853
2018-02-19T16:27:26.746Z,100859
2018-02-19T16:32:33.097Z,100865
2018-02-19T16:37:41.830Z,100871
2018-02-19T16:42:45.950Z,100868
2018-02-19T16:47:50.571Z,100873
2018-02-19T16:52:54.505Z,100870
2018-02-19T16:57:59.862Z,100869
2018-02-19T17:03:05.030Z,100876
2018-02-19T17:08:13.326Z,100869
2018-02-19T17:13:18.130Z,100871
2018-02-19T17:18:27.642Z,100864
2018-02-19T17:23:33.482Z,100862
2018-02-19T17:28:41.049Z,100868
2018-02-19T17:33:45.931Z,100868
2018-02-19T17:38:54.125Z,100882
2018-02-19T17:43:59.686Z,100874
2018-02-19T17:49:10.313Z,100872
2018-02-19T17:54:14.968Z,100864
2018-02-19T17:59:22.762Z,100865
2018-02-19T18:04:27.737Z,100865
2018-02-19T18:09:37.331Z,100866
2018-02-19T18:14:42.019Z,100865
2018-02-19T18:19:46.657Z,100870
2018-02-19T18:24:51.518Z,100865
2018-02-19T18:29:58.291Z,100861
2018-02-19T18:35:01.617Z,100859
2018-02-19T18:40:11.470Z,100858
2018-02-19T18:45:16.090Z,100862
2018-02-19T18:50:26.602Z,100864
2018-02-19T18:55:31.450Z,100866
2018-02-19T19:00:37.413Z,100871
2018-02-19T19:05:45.433Z,100864
2018-02-19T19:10:51.893Z,100864
2018-02-19T19:15:59.467Z,100866
2018-02-19T19:21:04.926Z,100873
2018-02-19T19:26:09.671Z,100874
2018-02-19T19:31:13.652Z,100873
2018-02-19T19:36:20.352Z,100859
2018-02-19T19:41:24.710Z,100851
2018-02-19T19:46:34.279Z,100855
2018-02-19T19:51:39.826Z,100853
2018-02-19T19:56:45.836Z,100851
2018-02-19T20:01:51.067Z,100850
2018-02-19T20:07:01.801Z,100850
2018-02-19T20:12:06.704Z,100845
2018-02-19T20:17:12.109Z,100839
2018-02-19T20:22:16.958Z,100840
2018-02-19T20:27:32.337Z,100835
2018-02-19T20:32:36.578Z,100833
2018-02-19T20:37:44.831Z,100825
2018-02-19T20:42:50.497Z,100825
2018-02-19T20:47:56.821Z,100824
2018-02-19T20:53:01.884Z,100827
2018-02-19T20:58:08.485Z,100813
2018-02-19T21:03:14.123Z,100822
2018-02-19T21:08:25.426Z,100821
2018-02-19T21:13:30.745Z,100814
2018-02-19T21:18:42.154Z,100814
2018-02-19T21:23:47.802Z,100808
2018-02-19T21:29:06.771Z,100815
2018-02-19T21:34:11.429Z,100813
2018-02-19T21:39:20.541Z,100807
2018-02-19T21:44:26.585Z,100806
2018-02-19T21:49:36.675Z,100801
2018-02-19T21:54:42.269Z,100788
2018-02-19T21:59:52.330Z,100800
2018-02-19T22:04:57.202Z,100797
2018-02-19T22:10:01.329Z,100796
2018-02-19T22:15:06.492Z,100802
2018-02-19T22:20:11.362Z,100803
2018-02-19T22:25:20.214Z,100797
2018-02-19T22:30:25.017Z,100789
2018-02-19T22:35:29.661Z,100794
2018-02-19T22:40:35.063Z,100794
2018-02-19T22:45:46.471Z,100789
2018-02-19T22:50:51.269Z,100790
2018-02-19T22:55:57.281Z,100786
2018-02-19T23:01:02.645Z,100777
2018-02-19T23:06:12.866Z,100769
2018-02-19T23:11:17.528Z,100753
2018-02-19T23:16:26.925Z,100752
2018-02-19T23:26:44.965Z,100756
2018-02-19T23:31:49.384Z,100743
2018-02-19T23:37:05.803Z,100746
2018-02-19T23:42:11.201Z,100734
2018-02-19T23:47:16.932Z,100739
2018-02-19T23:52:21.038Z,100738
2018-02-19T23:57:31.294Z,100729
